Time;durP1;ratioP1;P1;durP2;ratioP2;P2;SDS_P1;SDS_P2;PMS_P1;PMS_P2;Temp;Humidity;BMP_temperature;BMP_pressure;BME280_temperature;BME280_humidity;BME280_pressure;Samples;Min_cycle;Max_cycle;Signal;HPM_P1;HPM_P2
2023/09/29 00:03:39;;;;;;;5.13;2.13;;;;;;;19.42;90.99;101261.16;20821642;28;20059;-65
2023/09/29 00:13:41;;;;;;;4.90;2.40;;;;;;;19.38;90.96;101252.50;20826279;28;20049;-66
2023/09/29 00:23:43;;;;;;;5.93;2.40;;;;;;;19.34;91.05;101244.81;20815898;28;20061;-66
2023/09/29 00:33:45;;;;;;;4.32;2.10;;;;;;;19.32;90.94;101230.59;20817604;28;20528;-64
2023/09/29 00:43:48;;;;;;;4.20;2.33;;;;;;;19.29;91.07;101229.03;20805623;28;20417;-64
2023/09/29 00:53:50;;;;;;;5.53;2.05;;;;;;;19.28;91.25;101228.19;20809614;28;20049;-65
2023/09/29 01:03:52;;;;;;;5.45;2.45;;;;;;;19.27;90.93;101212.13;20806927;28;20049;-64
2023/09/29 01:13:54;;;;;;;5.38;2.30;;;;;;;19.24;90.99;101202.44;20818112;28;20516;-64
2023/09/29 01:23:55;;;;;;;5.03;2.28;;;;;;;19.25;90.91;101203.31;20807973;28;20094;-64
2023/09/29 01:33:57;;;;;;;6.38;2.55;;;;;;;19.23;91.09;101200.75;20816700;28;20399;-64
2023/09/29 01:43:59;;;;;;;3.85;1.73;;;;;;;19.22;90.88;101196.34;20817958;28;20051;-64
2023/09/29 01:54:01;;;;;;;4.60;2.13;;;;;;;19.11;91.02;101174.88;20821866;28;20053;-64
2023/09/29 02:04:04;;;;;;;3.55;1.90;;;;;;;19.11;90.97;101175.69;20805736;28;20080;-65
2023/09/29 02:14:06;;;;;;;3.38;2.05;;;;;;;19.12;90.92;101144.19;20811650;28;20045;-64
2023/09/29 02:24:08;;;;;;;3.80;1.70;;;;;;;19.20;91.01;101155.13;20802416;28;20049;-65
2023/09/29 02:34:10;;;;;;;4.20;2.00;;;;;;;19.20;90.96;101141.66;20809541;28;20049;-64
2023/09/29 02:44:12;;;;;;;3.83;1.90;;;;;;;19.19;90.92;101142.63;20809282;28;20501;-64
2023/09/29 02:54:14;;;;;;;3.85;2.22;;;;;;;19.22;90.93;101144.19;20817532;28;20049;-65
2023/09/29 03:04:16;;;;;;;6.07;2.78;;;;;;;19.27;90.73;101129.28;20832225;28;20061;-65
2023/09/29 03:14:18;;;;;;;5.30;2.05;;;;;;;19.29;90.87;101107.56;20813242;28;20045;-65
2023/09/29 03:24:20;;;;;;;3.67;1.88;;;;;;;19.30;90.64;101086.81;20825854;28;20103;-65
2023/09/29 03:34:23;;;;;;;3.70;1.80;;;;;;;19.32;90.84;101076.72;20826568;28;20107;-65
2023/09/29 03:44:25;;;;;;;4.32;2.13;;;;;;;19.31;90.58;101072.31;20830126;28;20103;-65
2023/09/29 03:54:27;;;;;;;4.95;2.47;;;;;;;19.32;90.76;101061.41;20817620;28;20071;-65
2023/09/29 04:04:29;;;;;;;4.55;2.08;;;;;;;19.32;90.84;101057.84;20823315;28;20397;-65
2023/09/29 04:14:30;;;;;;;4.60;2.08;;;;;;;19.33;90.94;101060.41;20822704;28;20049;-67
2023/09/29 04:24:36;;;;;;;4.23;2.00;;;;;;;19.33;91.03;101041.50;20820076;28;20138;-65
2023/09/29 04:34:38;;;;;;;4.07;2.33;;;;;;;19.33;91.40;101029.84;20838447;28;20430;-64
2023/09/29 04:44:40;;;;;;;4.55;2.17;;;;;;;19.32;91.27;101017.34;20822731;28;20045;-65
2023/09/29 04:54:41;;;;;;;4.05;1.90;;;;;;;19.31;91.29;101030.00;20829585;28;20052;-64
2023/09/29 05:04:43;;;;;;;3.05;2.15;;;;;;;19.28;91.67;101017.63;20823875;28;20046;-65
2023/09/29 05:14:45;;;;;;;4.05;1.85;;;;;;;19.27;91.78;101018.63;20801311;28;20053;-65
2023/09/29 05:24:47;;;;;;;2.85;1.80;;;;;;;19.25;91.68;101015.22;20806981;28;20076;-65
2023/09/29 05:34:49;;;;;;;2.78;1.80;;;;;;;19.24;92.10;101016.22;20798062;28;20055;-65
2023/09/29 05:44:51;;;;;;;3.45;1.90;;;;;;;19.24;91.96;100974.91;20794253;28;20041;-64
2023/09/29 05:54:52;;;;;;;3.22;2.40;;;;;;;19.25;91.98;100996.31;20807338;28;20052;-64
2023/09/29 06:04:54;;;;;;;3.60;2.17;;;;;;;19.25;92.15;100990.09;20794093;28;20107;-64
2023/09/29 06:14:57;;;;;;;2.40;1.73;;;;;;;19.26;92.28;100975.59;20826520;28;20115;-65
2023/09/29 06:24:58;;;;;;;3.72;2.20;;;;;;;19.28;92.10;100987.09;20798713;28;20399;-65
2023/09/29 06:35:00;;;;;;;2.80;1.77;;;;;;;19.29;91.90;100978.00;20812251;28;20156;-65
2023/09/29 06:45:03;;;;;;;3.78;1.95;;;;;;;19.31;91.81;100972.44;20813524;28;20508;-64
2023/09/29 06:55:06;;;;;;;4.80;1.92;;;;;;;19.32;92.05;100976.84;20818800;28;20049;-63
2023/09/29 07:05:08;;;;;;;2.88;2.10;;;;;;;19.34;92.04;100972.16;20805624;28;20106;-65
2023/09/29 07:15:10;;;;;;;3.65;2.00;;;;;;;19.38;92.31;100977.13;20801214;28;20136;-63
2023/09/29 07:25:14;;;;;;;3.70;1.60;;;;;;;19.51;92.90;100990.34;20806827;28;20074;-64
2023/09/29 07:35:15;;;;;;;2.47;1.60;;;;;;;19.59;93.09;101004.97;20802986;28;20043;-65
2023/09/29 07:45:19;;;;;;;2.90;1.58;;;;;;;19.67;93.31;100996.97;20824390;28;20563;-64
2023/09/29 07:55:20;;;;;;;2.50;1.50;;;;;;;19.79;93.95;101000.38;20819372;28;20072;-65
2023/09/29 08:05:22;;;;;;;2.35;1.50;;;;;;;19.93;94.03;101015.28;20792708;28;20745;-63
2023/09/29 08:15:24;;;;;;;2.20;1.70;;;;;;;19.98;94.43;101008.44;20791586;28;20064;-64
2023/09/29 08:25:26;;;;;;;2.50;1.60;;;;;;;20.11;94.36;101002.69;20795719;28;20053;-64
2023/09/29 08:35:28;;;;;;;3.20;1.60;;;;;;;20.32;94.11;101016.97;20803226;28;20162;-65
2023/09/29 08:45:31;;;;;;;2.10;1.42;;;;;;;20.45;93.22;101006.66;20795515;28;20057;-64
2023/09/29 08:55:33;;;;;;;2.50;1.50;;;;;;;20.56;93.23;101008.31;20786490;28;20044;-64
2023/09/29 09:05:34;;;;;;;2.47;1.20;;;;;;;20.71;92.50;101008.66;20796218;28;20126;-66
2023/09/29 09:15:36;;;;;;;2.00;1.40;;;;;;;20.82;92.16;101007.63;20812566;28;20183;-65
2023/09/29 09:25:42;;;;;;;3.70;1.80;;;;;;;20.90;92.26;101023.94;20799820;28;20072;-65
2023/09/29 09:35:45;;;;;;;1.90;1.45;;;;;;;21.01;91.96;101015.59;20796899;28;20052;-64
2023/09/29 09:45:49;;;;;;;3.10;1.70;;;;;;;21.04;92.66;101010.88;20801148;28;20057;-65
2023/09/29 09:56:20;;;;;;;1.90;1.15;;;;;;;21.14;92.63;101022.47;20801796;28;20067;-65
2023/09/29 10:06:22;;;;;;;2.28;1.40;;;;;;;21.16;92.10;101025.84;20828748;28;20057;-65
2023/09/29 10:16:25;;;;;;;1.80;1.40;;;;;;;21.09;91.95;101016.66;20800894;28;20106;-65
2023/09/29 10:26:28;;;;;;;1.90;1.10;;;;;;;21.10;92.31;101016.53;20818280;28;20048;-65
2023/09/29 10:36:30;;;;;;;2.67;1.10;;;;;;;21.00;92.32;101011.16;20833625;28;20045;-65
2023/09/29 10:46:32;;;;;;;1.55;1.10;;;;;;;20.96;92.56;101022.44;20809739;28;20056;-65
2023/09/29 10:56:36;;;;;;;1.73;1.00;;;;;;;21.03;93.31;101036.22;20819234;28;20049;-64
2023/09/29 11:06:45;;;;;;;1.60;1.30;;;;;;;21.01;93.40;101039.09;20810140;28;20057;-64
2023/09/29 11:16:57;;;;;;;2.47;1.25;;;;;;;21.13;93.84;101040.56;20835001;28;20052;-64
2023/09/29 11:27:00;;;;;;;2.80;1.40;;;;;;;21.14;94.05;101041.41;20795610;28;20191;-64
2023/09/29 11:37:04;;;;;;;3.20;1.40;;;;;;;21.19;94.49;101054.50;20845317;28;20059;-66
2023/09/29 11:47:06;;;;;;;2.20;1.37;;;;;;;21.24;95.02;101055.75;20819368;28;20166;-65
2023/09/29 11:57:08;;;;;;;5.35;1.95;;;;;;;21.23;95.44;101056.75;20813338;28;20081;-66
2023/09/29 12:07:10;;;;;;;2.42;1.63;;;;;;;21.22;95.54;101060.47;20829978;28;20570;-66
2023/09/29 12:17:12;;;;;;;4.10;1.40;;;;;;;21.22;95.79;101055.03;20834496;28;20481;-64
2023/09/29 12:27:14;;;;;;;2.70;1.80;;;;;;;21.25;96.27;101054.72;20835208;28;20414;-66
2023/09/29 12:37:16;;;;;;;2.50;1.20;;;;;;;21.27;96.52;101055.44;20824375;28;20077;-66
2023/09/29 12:47:17;;;;;;;2.92;1.70;;;;;;;21.25;96.95;101033.06;20811121;28;20046;-66
2023/09/29 12:57:19;;;;;;;2.45;1.40;;;;;;;21.23;97.39;101088.38;20808867;28;20130;-65
2023/09/29 13:07:22;;;;;;;3.22;1.50;;;;;;;21.22;97.84;101090.25;20808690;28;20052;-65
2023/09/29 13:17:23;;;;;;;1.42;1.02;;;;;;;21.21;97.87;101129.16;20804551;28;20044;-65
2023/09/29 13:27:25;;;;;;;1.67;1.20;;;;;;;21.21;98.03;101185.16;20813916;28;20049;-65
2023/09/29 13:37:28;;;;;;;2.63;1.40;;;;;;;21.18;97.95;101210.66;20807748;28;20059;-66
2023/09/29 13:47:30;;;;;;;1.60;1.00;;;;;;;21.14;97.79;101226.38;20802053;28;20055;-64
2023/09/29 13:57:32;;;;;;;1.65;1.00;;;;;;;21.14;97.57;101261.56;20810423;28;20494;-65
2023/09/29 14:07:34;;;;;;;1.08;0.95;;;;;;;21.10;97.54;101291.75;20811481;28;20057;-65
2023/09/29 14:17:36;;;;;;;1.98;1.00;;;;;;;21.09;97.21;101322.53;20798323;28;20497;-65
2023/09/29 14:27:38;;;;;;;1.38;0.80;;;;;;;21.11;97.14;101336.78;20818708;28;20055;-64
2023/09/29 14:37:40;;;;;;;1.13;0.85;;;;;;;21.12;96.98;101361.03;20818619;28;20061;-64
2023/09/29 14:47:42;;;;;;;1.02;0.70;;;;;;;21.13;96.89;101368.13;20826208;28;20061;-63
2023/09/29 14:57:44;;;;;;;1.75;0.85;;;;;;;21.13;96.69;101378.97;20832509;28;20049;-65
2023/09/29 15:07:46;;;;;;;2.65;1.20;;;;;;;21.15;96.37;101414.88;20826827;28;20053;-64
2023/09/29 15:17:48;;;;;;;0.98;0.60;;;;;;;21.17;96.14;101427.41;20823697;28;20052;-64
2023/09/29 15:27:50;;;;;;;1.00;0.70;;;;;;;21.16;96.12;101434.66;20804316;28;20049;-65
2023/09/29 15:37:54;;;;;;;1.48;0.80;;;;;;;21.15;95.97;101465.44;20817817;28;20409;-64
2023/09/29 15:47:56;;;;;;;1.48;0.75;;;;;;;21.15;95.62;101490.69;20799544;28;20061;-67
2023/09/29 15:57:59;;;;;;;2.17;1.15;;;;;;;21.14;95.30;101515.19;20799166;28;20044;-67
2023/09/29 16:08:02;;;;;;;1.60;0.75;;;;;;;21.12;95.00;101539.69;20827099;28;20053;-66
2023/09/29 16:18:04;;;;;;;4.30;0.95;;;;;;;21.12;94.67;101558.66;20814680;28;20445;-65
2023/09/29 16:28:07;;;;;;;2.50;1.45;;;;;;;21.05;96.23;101565.63;20813001;28;20049;-67
2023/09/29 16:38:09;;;;;;;3.88;1.63;;;;;;;21.10;100.00;101594.97;20816776;28;20831;-67
2023/09/29 16:48:11;;;;;;;3.15;1.63;;;;;;;21.09;100.00;101614.91;20791479;28;20049;-69
2023/09/29 16:58:13;;;;;;;3.53;1.55;;;;;;;21.08;100.00;101626.75;20795107;28;20126;-68
2023/09/29 17:08:14;;;;;;;3.38;1.50;;;;;;;21.14;100.00;101655.97;20801484;28;20076;-68
2023/09/29 17:18:16;;;;;;;3.63;1.80;;;;;;;21.15;100.00;101676.63;20799423;28;20417;-67
2023/09/29 17:28:18;;;;;;;3.45;1.50;;;;;;;21.12;100.00;101693.16;20801108;28;20049;-69
2023/09/29 17:38:20;;;;;;;4.55;1.70;;;;;;;21.09;98.48;101718.66;20792099;28;20053;-65
2023/09/29 17:48:22;;;;;;;4.57;2.08;;;;;;;20.98;96.97;101733.16;20801286;28;20048;-69
2023/09/29 17:58:40;;;;;;;9.63;1.73;;;;;;;20.82;95.60;101739.06;20812466;28;20131;-69
2023/09/29 18:08:42;;;;;;;4.88;1.98;;;;;;;20.71;94.68;101758.91;20848428;28;20057;-68
2023/09/29 18:18:45;;;;;;;5.97;2.33;;;;;;;20.58;94.23;101775.38;20820856;28;20053;-68
2023/09/29 18:28:47;;;;;;;3.63;1.70;;;;;;;20.53;94.05;101803.81;20856990;28;20587;-67
2023/09/29 18:38:49;;;;;;;4.07;1.90;;;;;;;20.46;94.01;101819.69;20844024;28;20048;-68
2023/09/29 18:48:52;;;;;;;3.55;2.05;;;;;;;20.39;94.36;101837.44;20856944;28;20047;-69
2023/09/29 18:58:53;;;;;;;4.80;2.22;;;;;;;20.36;93.91;101853.94;20847000;28;20055;-70
2023/09/29 19:08:56;;;;;;;6.47;2.30;;;;;;;20.34;93.71;101869.44;20860580;28;20627;-70
2023/09/29 19:18:59;;;;;;;4.20;2.30;;;;;;;20.28;93.59;101890.59;20880851;28;20045;-69
2023/09/29 19:29:01;;;;;;;5.90;2.83;;;;;;;20.22;93.33;101901.03;20851047;28;20159;-66
2023/09/29 19:39:04;;;;;;;4.05;2.33;;;;;;;20.14;93.00;101897.13;20866515;28;20048;-65
2023/09/29 19:49:06;;;;;;;4.90;2.30;;;;;;;20.04;92.50;101915.13;20835252;28;20057;-66
2023/09/29 19:59:08;;;;;;;5.82;2.85;;;;;;;19.89;91.83;101908.22;20828410;28;20053;-66
2023/09/29 20:09:11;;;;;;;6.57;2.80;;;;;;;19.73;91.53;101935.63;20832258;28;20048;-66
2023/09/29 20:19:12;;;;;;;4.68;2.38;;;;;;;19.65;91.01;101939.78;20834887;28;20049;-66
2023/09/29 20:29:14;;;;;;;5.20;2.08;;;;;;;19.58;90.45;101953.91;20876990;28;20059;-66
2023/09/29 20:39:16;;;;;;;5.40;2.83;;;;;;;19.49;89.75;101967.19;20868380;28;20048;-66
2023/09/29 20:49:18;;;;;;;7.63;2.50;;;;;;;19.40;89.58;101962.47;20806283;28;20095;-66
2023/09/29 20:59:20;;;;;;;6.07;3.15;;;;;;;19.33;89.28;101977.44;20795153;28;20056;-66
2023/09/29 21:09:22;;;;;;;4.45;2.08;;;;;;;19.24;88.95;101973.66;20794639;28;20056;-66
2023/09/29 21:19:24;;;;;;;5.10;2.17;;;;;;;19.18;88.38;101971.38;20832722;28;20049;-66
2023/09/29 21:29:26;;;;;;;5.03;2.20;;;;;;;19.12;88.27;101981.69;20832198;28;20717;-66
2023/09/29 21:39:30;;;;;;;4.82;2.35;;;;;;;19.12;87.95;101986.25;20827653;28;20049;-66
2023/09/29 21:49:32;;;;;;;4.37;2.43;;;;;;;19.13;87.80;101993.34;20850710;28;20473;-66
2023/09/29 21:59:34;;;;;;;4.28;2.03;;;;;;;19.15;87.50;102004.03;20840244;28;20049;-66
2023/09/29 22:09:36;;;;;;;6.40;2.42;;;;;;;19.11;87.02;102017.75;20869183;28;20090;-66
2023/09/29 22:19:38;;;;;;;4.70;1.88;;;;;;;19.07;86.96;102021.66;20861081;28;20041;-66
2023/09/29 22:29:40;;;;;;;4.90;2.00;;;;;;;19.08;86.58;102022.53;20837562;28;20055;-66
2023/09/29 22:39:42;;;;;;;4.93;1.70;;;;;;;19.06;86.11;102017.25;20826884;28;20052;-66
2023/09/29 22:49:48;;;;;;;4.85;1.85;;;;;;;19.04;85.91;102023.75;20846008;28;20140;-66
2023/09/29 22:59:50;;;;;;;4.47;1.70;;;;;;;18.99;85.87;102022.25;20826530;28;20100;-66
2023/09/29 23:09:52;;;;;;;3.30;1.80;;;;;;;18.91;85.71;102030.03;20822033;28;20053;-66
2023/09/29 23:19:54;;;;;;;3.65;1.90;;;;;;;18.92;85.41;102037.16;20869564;28;20049;-66
2023/09/29 23:29:57;;;;;;;4.60;1.95;;;;;;;18.84;85.04;102043.13;20872205;28;20127;-66
2023/09/29 23:39:59;;;;;;;3.95;1.73;;;;;;;18.80;85.15;102062.34;20826790;28;20049;-66
2023/09/29 23:50:03;;;;;;;3.78;1.67;;;;;;;18.76;84.85;102055.47;20821554;28;20144;-66
